Time;durP1;ratioP1;P1;durP2;ratioP2;P2;SDS_P1;SDS_P2;PMS_P1;PMS_P2;Temp;Humidity;BMP_temperature;BMP_pressure;BME280_temperature;BME280_humidity;BME280_pressure;Samples;Min_cycle;Max_cycle;Signal;HPM_P1;HPM_P2
2021/10/18 00:00:42;;;;;;;293.47;276.43;;;;;;;;;;5072004;28;20447;-66
2021/10/18 00:03:09;;;;;;;285.40;269.10;;;;;;;;;;5071901;28;20458;-66
2021/10/18 00:05:36;;;;;;;293.50;276.30;;;;;;;;;;5071346;28;20529;-66
2021/10/18 00:08:03;;;;;;;290.00;273.50;;;;;;;;;;5058013;28;20995;-66
2021/10/18 00:10:30;;;;;;;290.77;274.10;;;;;;;;;;5052298;28;20491;-66
2021/10/18 00:12:59;;;;;;;284.10;267.90;;;;;;;;;;5052368;28;20455;-66
2021/10/18 00:15:26;;;;;;;290.17;273.57;;;;;;;;;;5070612;28;20447;-66
2021/10/18 00:17:55;;;;;;;287.07;270.87;;;;;;;;;;5068110;28;20467;-65
2021/10/18 00:20:22;;;;;;;285.63;269.03;;;;;;;;;;5070346;28;20554;-66
2021/10/18 00:22:50;;;;;;;279.50;263.20;;;;;;;;;;5071649;28;20981;-66
2021/10/18 00:25:18;;;;;;;286.67;269.90;;;;;;;;;;5071329;28;20953;-65
2021/10/18 00:27:46;;;;;;;279.30;262.80;;;;;;;;;;5071484;28;20489;-65
2021/10/18 00:30:16;;;;;;;285.33;269.23;;;;;;;;;;5071169;28;20486;-65
2021/10/18 00:32:43;;;;;;;285.20;268.93;;;;;;;;;;5071278;28;20450;-66
2021/10/18 00:35:10;;;;;;;287.10;270.93;;;;;;;;;;5070441;28;20449;-65
2021/10/18 00:37:37;;;;;;;287.80;271.80;;;;;;;;;;5072027;28;20477;-65
2021/10/18 00:40:05;;;;;;;291.40;275.20;;;;;;;;;;5071427;28;20454;-65
2021/10/18 00:42:32;;;;;;;287.73;271.63;;;;;;;;;;5072048;28;20454;-65
2021/10/18 00:44:59;;;;;;;288.40;271.90;;;;;;;;;;5071462;28;20447;-65
2021/10/18 00:47:28;;;;;;;284.33;268.23;;;;;;;;;;5072147;28;20475;-65
2021/10/18 00:49:55;;;;;;;280.33;264.83;;;;;;;;;;5070893;28;20475;-65
2021/10/18 00:52:23;;;;;;;284.00;268.20;;;;;;;;;;5072251;28;20447;-65
2021/10/18 00:54:51;;;;;;;282.17;266.67;;;;;;;;;;5069336;28;20447;-65
2021/10/18 00:57:18;;;;;;;281.20;265.60;;;;;;;;;;5072506;28;20528;-65
2021/10/18 00:59:46;;;;;;;289.23;273.03;;;;;;;;;;5071547;28;20539;-65
2021/10/18 01:02:13;;;;;;;283.70;268.00;;;;;;;;;;5071899;28;20977;-65
2021/10/18 01:04:42;;;;;;;282.77;267.33;;;;;;;;;;5071438;28;20455;-66
2021/10/18 01:07:09;;;;;;;281.63;265.77;;;;;;;;;;5072872;28;20498;-66
2021/10/18 01:09:36;;;;;;;275.03;259.60;;;;;;;;;;5077311;28;20486;-66
2021/10/18 01:12:03;;;;;;;282.70;267.30;;;;;;;;;;5080357;28;20451;-65
2021/10/18 01:14:31;;;;;;;273.70;258.77;;;;;;;;;;5079531;28;20443;-66
2021/10/18 01:16:58;;;;;;;273.17;258.13;;;;;;;;;;5079232;28;20478;-65
2021/10/18 01:19:26;;;;;;;277.53;262.30;;;;;;;;;;5079492;28;20486;-65
2021/10/18 01:22:00;;;;;;;278.07;262.87;;;;;;;;;;5072085;28;20966;-64
2021/10/18 01:24:27;;;;;;;276.53;261.60;;;;;;;;;;5072197;28;20541;-64
2021/10/18 01:26:54;;;;;;;276.90;261.63;;;;;;;;;;5069347;28;21021;-64
2021/10/18 01:29:21;;;;;;;277.83;262.43;;;;;;;;;;5052106;28;20495;-64
2021/10/18 01:31:48;;;;;;;273.27;257.83;;;;;;;;;;5067332;28;20443;-64
2021/10/18 01:34:15;;;;;;;271.40;256.27;;;;;;;;;;5072662;28;21139;-65
2021/10/18 01:36:43;;;;;;;280.67;265.57;;;;;;;;;;5072450;28;20466;-65
2021/10/18 01:39:11;;;;;;;280.70;265.80;;;;;;;;;;5079991;28;20442;-65
2021/10/18 01:41:38;;;;;;;289.60;274.00;;;;;;;;;;5081953;28;20461;-66
2021/10/18 01:44:06;;;;;;;283.13;268.00;;;;;;;;;;5085181;28;20458;-66
2021/10/18 01:46:33;;;;;;;282.90;267.77;;;;;;;;;;5085389;28;20447;-66
2021/10/18 01:49:00;;;;;;;281.93;266.97;;;;;;;;;;5084277;28;20478;-66
2021/10/18 01:51:27;;;;;;;286.80;271.67;;;;;;;;;;5086828;28;20439;-65
2021/10/18 01:53:54;;;;;;;282.83;266.97;;;;;;;;;;5081145;28;20443;-66
2021/10/18 01:56:22;;;;;;;282.37;266.70;;;;;;;;;;5074169;28;20450;-66
2021/10/18 01:58:49;;;;;;;279.13;263.47;;;;;;;;;;5074444;28;20451;-65
2021/10/18 02:01:17;;;;;;;284.03;268.40;;;;;;;;;;5075872;28;20541;-65
2021/10/18 02:03:44;;;;;;;286.70;271.30;;;;;;;;;;5074349;28;20451;-65
2021/10/18 02:06:11;;;;;;;275.07;260.20;;;;;;;;;;5076290;28;20455;-65
2021/10/18 02:08:38;;;;;;;279.70;264.90;;;;;;;;;;5073944;28;20477;-65
2021/10/18 02:11:06;;;;;;;277.90;263.00;;;;;;;;;;5073819;28;20487;-65
2021/10/18 02:13:34;;;;;;;279.00;263.70;;;;;;;;;;5058599;28;20969;-65
2021/10/18 02:16:01;;;;;;;271.87;257.23;;;;;;;;;;5053966;28;20792;-65
2021/10/18 02:18:28;;;;;;;274.20;259.40;;;;;;;;;;5069459;28;20481;-65
2021/10/18 02:20:59;;;;;;;269.00;254.20;;;;;;;;;;5073736;28;20957;-65
2021/10/18 02:23:26;;;;;;;260.40;245.50;;;;;;;;;;5072105;28;20447;-66
2021/10/18 02:25:54;;;;;;;273.63;258.30;;;;;;;;;;5070124;28;20829;-66
2021/10/18 02:28:21;;;;;;;272.23;257.63;;;;;;;;;;5066884;28;20858;-66
2021/10/18 02:30:49;;;;;;;262.67;247.67;;;;;;;;;;5074195;28;20491;-66
2021/10/18 02:33:17;;;;;;;258.90;244.37;;;;;;;;;;5069914;28;20451;-65
2021/10/18 02:35:44;;;;;;;258.47;243.90;;;;;;;;;;5070134;28;20453;-66
2021/10/18 02:38:11;;;;;;;259.83;245.13;;;;;;;;;;5073635;28;20470;-65
2021/10/18 02:40:38;;;;;;;273.43;257.80;;;;;;;;;;5073209;28;20795;-65
2021/10/18 02:43:05;;;;;;;256.20;241.10;;;;;;;;;;5073708;28;20447;-66
2021/10/18 02:45:32;;;;;;;260.17;244.93;;;;;;;;;;5072103;28;20462;-65
2021/10/18 02:48:01;;;;;;;257.77;242.33;;;;;;;;;;5073006;28;20469;-65
2021/10/18 02:50:28;;;;;;;264.70;249.70;;;;;;;;;;5073353;28;20487;-66
2021/10/18 02:52:55;;;;;;;265.37;250.63;;;;;;;;;;5073134;28;20450;-65
2021/10/18 02:55:22;;;;;;;257.57;242.67;;;;;;;;;;5072711;28;20454;-65
2021/10/18 02:57:49;;;;;;;272.03;257.20;;;;;;;;;;5074102;28;20467;-65
2021/10/18 03:00:16;;;;;;;257.37;242.77;;;;;;;;;;5073606;28;20451;-65
2021/10/18 03:02:43;;;;;;;270.90;256.20;;;;;;;;;;5071550;28;20454;-65
2021/10/18 03:05:12;;;;;;;276.97;261.77;;;;;;;;;;5070810;28;20458;-65
2021/10/18 03:07:39;;;;;;;264.00;249.20;;;;;;;;;;5072476;28;21028;-66
2021/10/18 03:10:07;;;;;;;270.03;254.83;;;;;;;;;;5072955;28;20475;-66
2021/10/18 03:12:34;;;;;;;274.70;259.53;;;;;;;;;;5073003;28;20450;-66
2021/10/18 03:15:01;;;;;;;269.13;254.17;;;;;;;;;;5072263;28;20455;-66
2021/10/18 03:17:29;;;;;;;276.87;261.77;;;;;;;;;;5071282;28;20467;-65
2021/10/18 03:19:56;;;;;;;269.90;255.30;;;;;;;;;;5072195;28;21096;-66
2021/10/18 03:22:24;;;;;;;267.40;252.80;;;;;;;;;;5073198;28;20443;-66
2021/10/18 03:24:51;;;;;;;278.47;263.30;;;;;;;;;;5072384;28;20455;-65
2021/10/18 03:27:20;;;;;;;275.67;260.87;;;;;;;;;;5072155;28;20482;-66
2021/10/18 03:29:47;;;;;;;274.03;259.43;;;;;;;;;;5072173;28;20766;-65
2021/10/18 03:32:14;;;;;;;284.33;269.47;;;;;;;;;;5072986;28;20459;-65
2021/10/18 03:34:41;;;;;;;282.20;267.10;;;;;;;;;;5071478;28;20961;-65
2021/10/18 03:37:08;;;;;;;260.20;245.10;;;;;;;;;;5072555;28;20474;-65
2021/10/18 03:39:37;;;;;;;289.67;274.43;;;;;;;;;;5071453;28;20969;-66
2021/10/18 03:42:04;;;;;;;271.70;256.93;;;;;;;;;;5072698;28;20450;-65
2021/10/18 03:44:31;;;;;;;271.27;256.07;;;;;;;;;;5071264;28;20451;-65
2021/10/18 03:46:58;;;;;;;285.63;270.80;;;;;;;;;;5065902;28;20986;-65
2021/10/18 03:49:25;;;;;;;276.23;261.37;;;;;;;;;;5072233;28;20457;-65
2021/10/18 03:51:52;;;;;;;286.70;271.77;;;;;;;;;;5072499;28;20442;-65
2021/10/18 03:54:20;;;;;;;277.20;262.17;;;;;;;;;;5066395;28;20443;-65
2021/10/18 03:56:48;;;;;;;283.50;268.13;;;;;;;;;;5051682;28;20468;-65
2021/10/18 03:59:15;;;;;;;270.80;255.80;;;;;;;;;;5056681;28;20450;-65
2021/10/18 04:01:42;;;;;;;284.87;269.27;;;;;;;;;;5065320;28;20470;-65
2021/10/18 04:04:09;;;;;;;291.60;276.30;;;;;;;;;;5061019;28;20945;-65
2021/10/18 04:06:36;;;;;;;278.33;263.07;;;;;;;;;;5071519;28;20470;-65
2021/10/18 04:09:04;;;;;;;297.00;281.30;;;;;;;;;;5071869;28;20438;-65
2021/10/18 04:11:37;;;;;;;303.20;287.50;;;;;;;;;;5071901;28;20490;-65
2021/10/18 04:14:06;;;;;;;317.40;301.50;;;;;;;;;;5071215;28;20444;-65
2021/10/18 04:16:33;;;;;;;311.97;295.47;;;;;;;;;;5071196;28;20534;-65
2021/10/18 04:19:00;;;;;;;316.83;300.43;;;;;;;;;;5059057;28;20493;-65
2021/10/18 04:21:27;;;;;;;325.07;308.47;;;;;;;;;;5071760;28;20439;-65
2021/10/18 04:23:55;;;;;;;295.87;279.17;;;;;;;;;;5066817;28;20446;-65
2021/10/18 04:26:22;;;;;;;314.00;297.77;;;;;;;;;;5071308;28;20455;-65
2021/10/18 04:28:49;;;;;;;324.73;308.53;;;;;;;;;;5080172;22;20487;-66
2021/10/18 04:31:17;;;;;;;332.27;315.87;;;;;;;;;;5051149;28;20853;-66
2021/10/18 04:33:44;;;;;;;320.90;304.63;;;;;;;;;;5042765;28;20463;-65
2021/10/18 04:36:11;;;;;;;318.00;301.90;;;;;;;;;;5050944;28;20443;-65
2021/10/18 04:38:39;;;;;;;316.70;300.20;;;;;;;;;;5058906;28;20475;-66
2021/10/18 04:41:06;;;;;;;331.60;315.03;;;;;;;;;;5031607;28;20448;-65
2021/10/18 04:43:33;;;;;;;300.53;284.30;;;;;;;;;;5031773;28;20453;-65
2021/10/18 04:46:00;;;;;;;308.83;292.30;;;;;;;;;;5044096;28;20972;-64
2021/10/18 04:48:28;;;;;;;299.83;284.03;;;;;;;;;;5031650;28;20476;-67
2021/10/18 04:50:55;;;;;;;324.03;307.90;;;;;;;;;;5050751;28;20480;-65
2021/10/18 04:53:22;;;;;;;315.33;299.13;;;;;;;;;;5050813;28;21223;-66
2021/10/18 04:55:49;;;;;;;323.33;307.70;;;;;;;;;;5060705;28;20446;-67
2021/10/18 04:58:17;;;;;;;333.50;317.10;;;;;;;;;;5051251;28;20990;-66
2021/10/18 05:00:45;;;;;;;322.73;306.30;;;;;;;;;;5051271;28;20454;-66
2021/10/18 05:03:12;;;;;;;338.10;321.40;;;;;;;;;;5052366;28;20455;-67
2021/10/18 05:05:40;;;;;;;345.97;328.97;;;;;;;;;;5070917;28;20457;-67
2021/10/18 05:08:08;;;;;;;297.20;281.00;;;;;;;;;;5063417;28;20472;-68
2021/10/18 05:10:35;;;;;;;293.30;276.90;;;;;;;;;;5071152;28;20483;-67
2021/10/18 05:13:03;;;;;;;402.70;376.20;;;;;;;;;;5068846;28;20446;-65
2021/10/18 05:15:30;;;;;;;442.80;414.37;;;;;;;;;;5050255;28;20447;-68
2021/10/18 05:17:57;;;;;;;502.90;475.90;;;;;;;;;;5041583;28;20471;-66
2021/10/18 05:20:24;;;;;;;498.33;469.93;;;;;;;;;;5057522;28;20459;-68
2021/10/18 05:22:52;;;;;;;484.50;454.90;;;;;;;;;;5055059;28;20444;-68
2021/10/18 05:25:19;;;;;;;455.33;428.20;;;;;;;;;;5071764;28;20455;-68
2021/10/18 05:27:47;;;;;;;432.00;405.30;;;;;;;;;;5074659;28;20481;-68
2021/10/18 05:30:16;;;;;;;412.33;388.00;;;;;;;;;;5066744;28;20448;-68
2021/10/18 05:32:43;;;;;;;403.63;381.03;;;;;;;;;;5054406;28;20451;-67
2021/10/18 05:35:10;;;;;;;432.07;409.70;;;;;;;;;;5069443;28;20453;-68
2021/10/18 05:37:42;;;;;;;405.27;385.47;;;;;;;;;;5041644;28;20471;-68
2021/10/18 05:40:12;;;;;;;373.33;353.93;;;;;;;;;;5060794;28;20450;-67
2021/10/18 05:42:39;;;;;;;359.73;342.77;;;;;;;;;;5074551;28;20442;-68
2021/10/18 05:45:08;;;;;;;352.33;336.73;;;;;;;;;;5060602;28;20456;-68
2021/10/18 05:47:35;;;;;;;344.37;329.10;;;;;;;;;;5054660;28;20447;-66
2021/10/18 05:50:03;;;;;;;323.20;309.03;;;;;;;;;;5062950;28;20463;-66
2021/10/18 05:52:30;;;;;;;282.27;269.80;;;;;;;;;;5049675;28;20447;-67
2021/10/18 05:54:57;;;;;;;269.37;257.47;;;;;;;;;;5050872;28;20543;-67
2021/10/18 05:57:26;;;;;;;222.33;212.43;;;;;;;;;;5053863;28;20821;-66
2021/10/18 05:59:53;;;;;;;212.70;203.00;;;;;;;;;;5059624;28;20458;-66
2021/10/18 06:02:20;;;;;;;184.70;176.10;;;;;;;;;;5035496;28;20448;-66
2021/10/18 06:04:47;;;;;;;176.60;167.13;;;;;;;;;;5061400;28;20462;-62
2021/10/18 06:07:14;;;;;;;212.37;202.10;;;;;;;;;;5072042;28;20477;-63
2021/10/18 06:09:41;;;;;;;302.00;288.70;;;;;;;;;;5066323;28;20470;-67
2021/10/18 06:12:08;;;;;;;335.73;317.83;;;;;;;;;;5034816;28;20495;-66
2021/10/18 06:14:37;;;;;;;334.37;316.17;;;;;;;;;;5056646;28;20817;-66
2021/10/18 06:17:04;;;;;;;336.30;318.10;;;;;;;;;;5037723;28;20449;-66
2021/10/18 06:19:31;;;;;;;369.37;350.93;;;;;;;;;;5054568;28;20475;-66
2021/10/18 06:21:59;;;;;;;361.43;343.23;;;;;;;;;;5071993;28;20447;-66
2021/10/18 06:24:29;;;;;;;358.50;340.80;;;;;;;;;;5062409;28;20451;-66
2021/10/18 06:26:56;;;;;;;356.17;338.40;;;;;;;;;;5072964;28;20443;-67
2021/10/18 06:29:25;;;;;;;355.23;337.13;;;;;;;;;;5069064;28;20475;-66
2021/10/18 06:31:53;;;;;;;360.53;342.10;;;;;;;;;;5064795;28;20491;-66
2021/10/18 06:34:20;;;;;;;350.67;333.03;;;;;;;;;;5054875;28;20452;-66
2021/10/18 06:36:47;;;;;;;339.57;321.83;;;;;;;;;;5059945;28;20447;-66
2021/10/18 06:39:14;;;;;;;328.00;310.60;;;;;;;;;;5077232;28;20463;-66
2021/10/18 06:41:41;;;;;;;331.30;313.47;;;;;;;;;;5054950;28;20455;-66
2021/10/18 06:44:08;;;;;;;341.77;324.27;;;;;;;;;;5052512;28;20970;-66
2021/10/18 06:46:36;;;;;;;314.03;296.63;;;;;;;;;;5053766;28;20448;-66
2021/10/18 06:49:04;;;;;;;327.23;309.97;;;;;;;;;;5068555;28;20467;-66
2021/10/18 06:51:34;;;;;;;315.67;298.47;;;;;;;;;;5070742;28;20500;-66
2021/10/18 06:54:02;;;;;;;325.47;308.00;;;;;;;;;;5072864;28;20960;-67
2021/10/18 06:56:29;;;;;;;331.73;314.73;;;;;;;;;;5073002;28;20455;-67
2021/10/18 06:58:56;;;;;;;350.43;333.23;;;;;;;;;;5073237;28;20986;-66
2021/10/18 07:01:23;;;;;;;331.73;314.23;;;;;;;;;;5072615;28;20803;-67
2021/10/18 07:03:50;;;;;;;340.30;323.10;;;;;;;;;;5066942;28;20448;-67
2021/10/18 07:06:19;;;;;;;354.97;337.37;;;;;;;;;;5053060;28;20448;-67
2021/10/18 07:08:46;;;;;;;353.10;335.90;;;;;;;;;;5052838;28;20986;-67
2021/10/18 07:11:13;;;;;;;329.23;312.23;;;;;;;;;;5053479;28;20503;-66
2021/10/18 07:13:40;;;;;;;353.43;336.90;;;;;;;;;;5053808;28;20452;-66
2021/10/18 07:16:07;;;;;;;343.83;327.03;;;;;;;;;;5052523;28;20448;-66
2021/10/18 07:18:34;;;;;;;328.80;312.10;;;;;;;;;;5053197;28;20463;-66
2021/10/18 07:21:01;;;;;;;326.93;310.63;;;;;;;;;;5053422;28;20448;-66
2021/10/18 07:23:30;;;;;;;356.17;339.33;;;;;;;;;;5073535;28;20450;-67
2021/10/18 07:25:57;;;;;;;313.07;296.60;;;;;;;;;;5072630;28;20447;-67
2021/10/18 07:28:25;;;;;;;316.27;300.67;;;;;;;;;;5066792;28;20491;-66
2021/10/18 07:30:52;;;;;;;328.37;312.13;;;;;;;;;;5052715;28;20506;-66
2021/10/18 07:33:20;;;;;;;320.57;304.37;;;;;;;;;;5052968;28;20480;-66
2021/10/18 07:35:47;;;;;;;324.60;308.47;;;;;;;;;;5065484;28;20485;-66
2021/10/18 07:38:14;;;;;;;327.33;311.03;;;;;;;;;;5072814;28;20487;-66
2021/10/18 07:40:42;;;;;;;335.00;319.10;;;;;;;;;;5071831;28;20453;-67
2021/10/18 07:43:10;;;;;;;340.47;325.43;;;;;;;;;;5072654;28;20439;-67
2021/10/18 07:45:38;;;;;;;323.07;307.90;;;;;;;;;;5061376;28;20955;-67
2021/10/18 07:48:05;;;;;;;332.70;317.80;;;;;;;;;;5051585;28;20463;-66
2021/10/18 07:50:32;;;;;;;309.63;295.13;;;;;;;;;;5052566;28;20452;-67
2021/10/18 07:52:59;;;;;;;313.60;299.03;;;;;;;;;;5052777;28;20483;-66
2021/10/18 07:55:29;;;;;;;313.43;299.00;;;;;;;;;;5051732;28;20812;-67
2021/10/18 07:57:57;;;;;;;305.83;291.13;;;;;;;;;;5052368;28;20562;-66
2021/10/18 08:00:24;;;;;;;302.23;287.53;;;;;;;;;;5058653;28;20892;-66
2021/10/18 08:02:52;;;;;;;313.63;298.90;;;;;;;;;;5072162;28;20443;-66
2021/10/18 08:05:19;;;;;;;311.20;296.40;;;;;;;;;;5070118;28;20451;-66
2021/10/18 08:07:48;;;;;;;304.93;290.73;;;;;;;;;;5071963;28;20493;-67
2021/10/18 08:10:23;;;;;;;304.63;289.97;;;;;;;;;;5070315;28;20513;-67
2021/10/18 08:12:50;;;;;;;301.93;287.37;;;;;;;;;;5055948;28;21056;-67
2021/10/18 08:15:18;;;;;;;320.30;305.77;;;;;;;;;;5051331;28;20458;-66
2021/10/18 08:17:45;;;;;;;309.93;295.20;;;;;;;;;;5051719;28;20464;-66
2021/10/18 08:20:13;;;;;;;304.30;289.37;;;;;;;;;;5052061;28;20452;-67
2021/10/18 08:22:40;;;;;;;311.63;296.80;;;;;;;;;;5051897;28;20796;-67
2021/10/18 08:25:07;;;;;;;320.37;305.47;;;;;;;;;;5051670;28;20444;-66
2021/10/18 08:27:34;;;;;;;300.63;286.07;;;;;;;;;;5051106;28;20550;-66
2021/10/18 08:30:01;;;;;;;307.77;292.77;;;;;;;;;;5051859;28;20451;-66
2021/10/18 08:32:30;;;;;;;312.50;298.23;;;;;;;;;;5051413;28;21002;-66
2021/10/18 08:34:57;;;;;;;311.83;297.53;;;;;;;;;;5050971;28;20490;-66
2021/10/18 08:38:14;;;;;;;311.00;296.87;;;;;;;;;;5062858;28;20473;-66
2021/10/18 08:40:12;;;;;;;325.90;311.90;;;;;;;;;;5072728;28;20508;-66
2021/10/18 08:42:56;;;;;;;313.10;298.90;;;;;;;;;;5070850;28;20451;-66
2021/10/18 08:45:24;;;;;;;305.03;290.90;;;;;;;;;;5071227;28;20486;-66
2021/10/18 08:47:53;;;;;;;308.43;294.53;;;;;;;;;;5074844;28;20470;-66
2021/10/18 08:50:21;;;;;;;308.43;294.77;;;;;;;;;;5071759;28;20466;-66
2021/10/18 08:52:49;;;;;;;311.43;298.03;;;;;;;;;;5070712;28;20487;-65
2021/10/18 08:55:16;;;;;;;312.90;299.50;;;;;;;;;;5062326;28;20821;-66
2021/10/18 08:57:43;;;;;;;300.97;287.23;;;;;;;;;;5062233;28;20474;-66
2021/10/18 09:00:31;;;;;;;309.50;296.20;;;;;;;;;;5071347;28;20453;-66
2021/10/18 09:03:00;;;;;;;306.20;292.30;;;;;;;;;;5070490;28;20454;-66
2021/10/18 09:05:27;;;;;;;301.03;287.53;;;;;;;;;;5070706;28;20458;-67
2021/10/18 09:07:54;;;;;;;305.37;291.80;;;;;;;;;;5059633;28;20475;-66
2021/10/18 09:10:21;;;;;;;286.93;273.63;;;;;;;;;;5051359;28;20451;-67
2021/10/18 09:12:48;;;;;;;299.10;285.33;;;;;;;;;;5061411;28;20485;-66
2021/10/18 09:15:20;;;;;;;306.50;292.90;;;;;;;;;;5061246;28;20538;-67
2021/10/18 09:17:52;;;;;;;310.00;296.40;;;;;;;;;;5051521;28;20478;-67
2021/10/18 09:20:24;;;;;;;312.63;298.43;;;;;;;;;;5051567;28;20438;-67
2021/10/18 09:22:52;;;;;;;308.57;294.40;;;;;;;;;;5060670;28;20454;-67
2021/10/18 09:25:35;;;;;;;359.97;344.30;;;;;;;;;;5071254;28;20453;-66
2021/10/18 09:28:09;;;;;;;358.50;343.60;;;;;;;;;;5060813;28;20545;-66
2021/10/18 09:30:37;;;;;;;344.03;328.93;;;;;;;;;;5051535;28;20444;-67
2021/10/18 09:33:06;;;;;;;350.17;334.67;;;;;;;;;;5051194;28;20998;-66
2021/10/18 09:35:34;;;;;;;329.53;315.13;;;;;;;;;;5051576;28;20464;-66
2021/10/18 09:38:09;;;;;;;348.50;333.60;;;;;;;;;;5052147;28;20479;-66
2021/10/18 09:40:39;;;;;;;340.83;326.17;;;;;;;;;;5052229;28;20440;-66
2021/10/18 09:43:11;;;;;;;353.03;337.97;;;;;;;;;;5051654;28;20443;-66
2021/10/18 09:45:38;;;;;;;342.77;328.77;;;;;;;;;;5058729;28;20813;-67
2021/10/18 10:52:57;;;;;;;188.30;180.30;;;;;;;;;;5085495;28;20489;-70
2021/10/18 10:55:26;;;;;;;193.10;185.03;;;;;;;;;;5080136;28;20530;-70
2021/10/18 10:57:54;;;;;;;206.37;198.03;;;;;;;;;;5078569;28;20447;-70
2021/10/18 11:00:33;;;;;;;180.83;172.83;;;;;;;;;;5082899;28;20462;-70
2021/10/18 11:03:19;;;;;;;194.57;186.27;;;;;;;;;;5074672;28;20440;-70
2021/10/18 11:05:56;;;;;;;198.63;190.43;;;;;;;;;;5073618;28;20889;-70
2021/10/18 11:08:30;;;;;;;190.43;182.43;;;;;;;;;;5074816;28;20442;-70
2021/10/18 11:10:57;;;;;;;196.80;188.60;;;;;;;;;;5072655;28;20435;-70
2021/10/18 11:13:24;;;;;;;179.57;171.87;;;;;;;;;;5072838;28;20479;-70
2021/10/18 11:15:59;;;;;;;187.20;179.27;;;;;;;;;;5072138;28;20467;-70
2021/10/18 11:18:27;;;;;;;169.57;162.37;;;;;;;;;;5073281;28;20460;-71
2021/10/18 11:20:54;;;;;;;165.00;157.70;;;;;;;;;;5072984;28;20455;-71
2021/10/18 11:23:21;;;;;;;160.57;153.57;;;;;;;;;;5072573;28;20938;-71
2021/10/18 11:25:48;;;;;;;163.77;156.63;;;;;;;;;;5075747;28;20443;-70
2021/10/18 11:28:16;;;;;;;141.53;135.00;;;;;;;;;;5077751;28;20446;-71
2021/10/18 11:30:44;;;;;;;141.07;134.80;;;;;;;;;;5085145;28;20465;-71
2021/10/18 11:33:14;;;;;;;135.77;129.80;;;;;;;;;;5073755;28;20470;-71
2021/10/18 11:35:41;;;;;;;122.63;117.10;;;;;;;;;;5080314;28;20520;-71
2021/10/18 11:38:09;;;;;;;116.67;111.37;;;;;;;;;;5081422;28;20457;-71
2021/10/18 11:40:37;;;;;;;112.70;107.33;;;;;;;;;;5086387;28;20981;-70
2021/10/18 11:43:05;;;;;;;117.93;112.47;;;;;;;;;;5076248;28;20457;-71
2021/10/18 11:45:33;;;;;;;125.93;120.37;;;;;;;;;;5073014;28;20447;-71
2021/10/18 11:48:05;;;;;;;124.73;119.07;;;;;;;;;;5083348;28;20446;-71
2021/10/18 11:50:36;;;;;;;125.80;120.00;;;;;;;;;;5078720;28;20479;-71
2021/10/18 11:53:04;;;;;;;119.77;113.87;;;;;;;;;;5072329;28;20486;-71
2021/10/18 11:55:32;;;;;;;127.53;121.70;;;;;;;;;;5075572;28;20474;-71
2021/10/18 11:58:00;;;;;;;134.37;128.27;;;;;;;;;;5072685;28;20453;-71
2021/10/18 12:00:29;;;;;;;154.13;147.43;;;;;;;;;;5073994;28;20503;-71
2021/10/18 12:03:01;;;;;;;154.90;148.10;;;;;;;;;;5073147;28;20447;-71
2021/10/18 12:05:34;;;;;;;147.77;141.00;;;;;;;;;;5071383;28;20953;-71
2021/10/18 12:08:05;;;;;;;148.07;141.37;;;;;;;;;;5071736;28;20450;-71
2021/10/18 12:10:32;;;;;;;151.07;144.47;;;;;;;;;;5071623;28;20903;-71
2021/10/18 12:13:21;;;;;;;149.40;142.80;;;;;;;;;;5071863;28;20486;-71
2021/10/18 12:15:59;;;;;;;170.50;163.10;;;;;;;;;;5071620;28;20447;-71
2021/10/18 12:18:27;;;;;;;177.10;169.50;;;;;;;;;;5071876;28;20431;-71
2021/10/18 12:20:55;;;;;;;176.87;169.33;;;;;;;;;;5071083;28;20454;-71
2021/10/18 12:23:26;;;;;;;178.20;170.50;;;;;;;;;;5071886;28;20438;-71
2021/10/18 12:26:04;;;;;;;195.30;187.23;;;;;;;;;;5070169;28;20550;-71
2021/10/18 12:28:46;;;;;;;204.83;196.33;;;;;;;;;;5070658;28;20454;-71
2021/10/18 12:31:40;;;;;;;215.77;207.07;;;;;;;;;;5069138;28;20473;-71
2021/10/18 12:34:11;;;;;;;225.47;216.27;;;;;;;;;;5025979;28;20491;-72
2021/10/18 12:36:51;;;;;;;219.30;210.23;;;;;;;;;;5080920;28;20964;-71
2021/10/18 12:39:37;;;;;;;228.67;219.27;;;;;;;;;;5078322;28;20462;-72
2021/10/18 12:42:06;;;;;;;233.17;224.03;;;;;;;;;;5072744;28;20447;-72
2021/10/18 12:44:35;;;;;;;223.17;214.37;;;;;;;;;;5073621;28;20454;-72
2021/10/18 12:47:02;;;;;;;222.17;213.07;;;;;;;;;;5073626;28;20451;-72
2021/10/18 12:49:29;;;;;;;231.73;222.27;;;;;;;;;;5084715;28;20474;-71
2021/10/18 12:51:56;;;;;;;255.37;245.40;;;;;;;;;;5074868;28;20783;-72
2021/10/18 12:54:28;;;;;;;246.93;237.23;;;;;;;;;;5073204;28;20475;-71
2021/10/18 12:57:13;;;;;;;255.33;245.30;;;;;;;;;;5072899;28;20447;-72
2021/10/18 12:59:55;;;;;;;255.30;245.30;;;;;;;;;;5071884;28;20473;-72
2021/10/18 13:02:25;;;;;;;258.47;248.07;;;;;;;;;;5070951;28;20447;-72
2021/10/18 13:05:15;;;;;;;267.20;256.80;;;;;;;;;;5075753;28;20534;-72
2021/10/18 13:07:44;;;;;;;246.27;236.50;;;;;;;;;;5070809;28;20443;-72
2021/10/18 13:10:12;;;;;;;245.97;236.37;;;;;;;;;;5071563;28;20463;-72
2021/10/18 13:12:39;;;;;;;229.00;219.60;;;;;;;;;;5077787;28;20483;-72
2021/10/18 13:15:07;;;;;;;240.87;230.67;;;;;;;;;;5087274;28;20496;-72
2021/10/18 13:17:35;;;;;;;233.83;224.40;;;;;;;;;;5072466;28;20541;-72
2021/10/18 13:20:03;;;;;;;244.47;234.80;;;;;;;;;;5071478;28;20485;-72
2021/10/18 13:22:30;;;;;;;225.37;216.27;;;;;;;;;;5071759;28;20451;-72
2021/10/18 13:24:57;;;;;;;229.80;220.70;;;;;;;;;;5070790;28;20443;-72
2021/10/18 13:27:24;;;;;;;222.43;213.50;;;;;;;;;;5072316;28;20964;-72
2021/10/18 13:29:51;;;;;;;219.93;211.03;;;;;;;;;;5070815;28;20478;-72
2021/10/18 13:32:18;;;;;;;201.10;192.70;;;;;;;;;;5070921;28;20451;-72
2021/10/18 13:34:47;;;;;;;207.13;198.53;;;;;;;;;;5075807;28;20471;-72
2021/10/18 13:37:14;;;;;;;182.57;174.67;;;;;;;;;;5091083;28;20949;-72
2021/10/18 13:39:42;;;;;;;163.97;156.37;;;;;;;;;;5095540;28;20473;-72
2021/10/18 13:42:10;;;;;;;160.80;153.73;;;;;;;;;;5091158;28;20455;-72
2021/10/18 13:44:38;;;;;;;156.90;149.83;;;;;;;;;;5092957;28;20466;-72
2021/10/18 13:47:05;;;;;;;141.27;135.07;;;;;;;;;;5081225;28;20467;-72
2021/10/18 13:49:32;;;;;;;138.13;132.00;;;;;;;;;;5082785;28;20469;-72
2021/10/18 13:52:00;;;;;;;134.63;128.73;;;;;;;;;;5075685;28;20447;-72
2021/10/18 13:54:28;;;;;;;139.00;132.80;;;;;;;;;;5073771;28;20489;-72
2021/10/18 13:56:55;;;;;;;158.37;151.57;;;;;;;;;;5074493;28;20442;-72
2021/10/18 13:59:22;;;;;;;149.73;143.20;;;;;;;;;;5074605;28;20471;-72
2021/10/18 14:01:50;;;;;;;153.00;146.23;;;;;;;;;;5074414;28;20449;-72
2021/10/18 14:04:18;;;;;;;162.27;155.23;;;;;;;;;;5075069;28;20450;-72
2021/10/18 14:06:46;;;;;;;157.70;151.00;;;;;;;;;;5083104;28;20505;-72
2021/10/18 14:09:15;;;;;;;150.33;143.93;;;;;;;;;;5079495;28;20815;-72
2021/10/18 14:11:43;;;;;;;154.47;147.73;;;;;;;;;;5076542;28;20455;-72
2021/10/18 14:14:11;;;;;;;147.60;141.07;;;;;;;;;;5075157;28;20734;-72
2021/10/18 14:16:38;;;;;;;161.33;154.50;;;;;;;;;;5074282;28;20506;-72
2021/10/18 14:19:06;;;;;;;164.43;157.37;;;;;;;;;;5081650;28;21004;-72
2021/10/18 14:21:34;;;;;;;180.10;172.40;;;;;;;;;;5094467;28;20453;-72
2021/10/18 14:24:01;;;;;;;202.27;193.77;;;;;;;;;;5092431;28;20449;-72
2021/10/18 14:26:30;;;;;;;218.37;209.37;;;;;;;;;;5087013;28;20944;-72
2021/10/18 14:28:57;;;;;;;209.73;201.13;;;;;;;;;;5085895;28;20482;-72
2021/10/18 14:31:26;;;;;;;194.17;186.13;;;;;;;;;;5081798;28;20449;-72
2021/10/18 14:33:53;;;;;;;201.57;193.03;;;;;;;;;;5093964;28;20482;-72
2021/10/18 14:36:20;;;;;;;201.50;193.10;;;;;;;;;;5093051;28;20450;-72
2021/10/18 14:38:52;;;;;;;221.63;212.63;;;;;;;;;;5094069;28;20470;-72
2021/10/18 14:41:19;;;;;;;246.07;236.47;;;;;;;;;;5079212;28;20535;-72
2021/10/18 14:43:48;;;;;;;282.80;271.67;;;;;;;;;;5079202;28;20465;-71
2021/10/18 14:46:15;;;;;;;302.50;290.70;;;;;;;;;;5079027;28;20528;-72
2021/10/18 14:48:42;;;;;;;305.90;293.60;;;;;;;;;;5087881;28;20466;-72
2021/10/18 14:51:09;;;;;;;318.47;306.03;;;;;;;;;;5093611;28;20979;-72
2021/10/18 14:53:37;;;;;;;312.13;299.63;;;;;;;;;;5090681;28;20482;-72
2021/10/18 14:56:04;;;;;;;311.17;298.30;;;;;;;;;;5072925;28;20961;-72
2021/10/18 14:58:31;;;;;;;319.33;306.77;;;;;;;;;;5075410;28;20453;-72
2021/10/18 15:01:00;;;;;;;328.13;314.77;;;;;;;;;;5076339;28;20447;-70
2021/10/18 15:03:27;;;;;;;318.80;306.03;;;;;;;;;;5074431;28;21559;-69